Skip to content
You are here: Gozo Weather
Gozo Weather Station for the very latest live weather conditions from Gozo and Malta
 
 TIME   TEMPERATURE   WINDSPEED   DIRECTION   HUMIDITY   BAROMETER   RAINFALL 
4:35 16.9°C (62.4°F) 13.0 kmh (8.1 mph) NNE 64% 1014.0hPa (29.94 inHg) 0.0mm (0.00 in.)
3:35 17.5°C (63.5 °F) 16.7 kmh (10.4 mph) NE 63% 1013.0hPa (29.91 inHg) 0.0mm (0.00 in.)
2:35 17.6°C (63.7 °F) 18.5 kmh (11.5 mph) NNE 63% 1013.0hPa (29.91 inHg) 0.0mm (0.00 in.)
1:35 17.7°C (63.9 °F) 25.9 kmh (16.1 mph) ENE 62% 1014.0hPa (29.94 inHg) 0.0mm (0.00 in.)
12:35 18.1°C (64.6 °F) 22.2 kmh (13.8 mph) NE 63% 1014.0hPa (29.94 inHg) 0.0mm (0.00 in.)
11:35 18.0°C (64.4 °F) 24.1 kmh (15.0 mph) NNE 65% 1015.0hPa (29.97 inHg) 0.0mm (0.00 in.)
10:35 17.4°C (63.3 °F) 22.2 kmh (13.8 mph) NNE 66% 1015.0hPa (29.97 inHg) 0.0mm (0.00 in.)
9:35 17.2°C (63.0 °F) 20.4 kmh (12.7 mph) NNE 67% 1014.0hPa (29.94 inHg) 0.0mm (0.00 in.)
8:35 16.3°C (61.3 °F) 20.4 kmh (12.7 mph) NE 68% 1014.0hPa (29.94 inHg) 0.0mm (0.00 in.)
7:35 15.9°C (60.6 °F) 13.0 kmh (8.1 mph) N 67% 1013.0hPa (29.91 inHg) 0.0mm (0.00 in.)
6:35 15.8°C (60.4 °F) 16.7 kmh (10.4 mph) NNE 67% 1013.0hPa (29.91 inHg) 0.0mm (0.00 in.)
5:35 15.9°C (60.6 °F) 13.0 kmh (8.1 mph) ENE 68% 1013.0hPa (29.91 inHg) 0.0mm (0.00 in.)
4:35 16.0°C (60.8 °F) 25.9 kmh (16.1 mph) NW 68% 1013.0hPa (29.91 inHg) 0.0mm (0.00 in.)
3:35 16.0°C (60.8 °F) 16.7 kmh (10.4 mph) NNE 69% 1013.0hPa (29.91 inHg) 0.0mm (0.00 in.)
2:35 16.2°C (61.2 °F) 14.8 kmh (9.2 mph) NNE 69% 1013.0hPa (29.91 inHg) 0.0mm (0.00 in.)
1:35 16.2°C (61.2 °F) 22.2 kmh (13.8 mph) NNE 69% 1013.0hPa (29.91 inHg) 0.0mm (0.00 in.)
12:35 16.4°C (61.5 °F) 13.0 kmh (8.1 mph) NNW 68% 1013.0hPa (29.91 inHg) 0.0mm (0.00 in.)
11:35 16.4°C (61.5 °F) 0.0 kmh (0.0 mph) NE 68% 1014.0hPa (29.94 inHg) 0.0mm (0.00 in.)
10:35 16.3°C (61.3 °F) 16.7 kmh (10.4 mph) NE 68% 1013.0hPa (29.91 inHg) 0.0mm (0.00 in.)
9:35 16.3°C (61.3 °F) 18.5 kmh (11.5 mph) NNE 69% 1013.0hPa (29.91 inHg) 0.0mm (0.00 in.)
8:35 16.5°C (61.7 °F) 11.1 kmh (6.9 mph) N 69% 1013.0hPa (29.91 inHg) 0.0mm (0.00 in.)
7:35 16.7°C (62.1 °F) 18.5 kmh (11.5 mph) N 69% 1013.0hPa (29.91 inHg) 0.0mm (0.00 in.)
6:35 16.8°C (62.2 °F) 16.7 kmh (10.4 mph) NE 69% 1013.0hPa (29.91 inHg) 0.0mm (0.00 in.)
5:35 16.9°C (62.4 °F) 14.8 kmh (9.2 mph) NE 68% 1012.0hPa (29.88 inHg) 0.0mm (0.00 in.)

You need the latest version of Flash Player to view some of our content.


Why not download and install the latest version now?
It will only take you a moment and will ensure that you can view all the latest flash designed websites.

Translate this page

Animated Satellite

Click per aprire http://www.gozo.ws/Animation.php
copyright 2017 EUMETSAT

European Lightning Activity


Please click image for full size

Sponsored Links